NY Terminal Aviation Weather Discussion (AFD) - Prepared: 1005 PM EST WED JAN 28 2015
HIGH PRES OVER THE OH VALLEY MOVES OVERHEAD LATE TONIGHT AND DEPARTS 
ON THURSDAY. A CLIPPER LOW APPROACHES THURSDAY NIGHT.

VFR THROUGH THURSDAY MORNING. INCREASING POTENTIAL FOR MVFR CIGS TO 
DEVELOP AFT 21Z ACROSS NYC/NJ AND WESTERN TERMINALS. IFR CONDITIONS 
POSSIBLE IN LIGHT SNOW AS EARLY AS 00Z...INCREASING PROB THROUGH 06Z.

NW WINDS...GENERALLY TO THE RIGHT OF 310 MAG...VEER TO THE NORTH AND 
BECOME LIGHT AND VARIABLE LATE TONIGHT. SE FLOW DEVELOPS LATE THU 
AFTERNOON INTO EVENING. 

5 Day General Aviation Outlook:

.OUTLOOK FOR 00Z FRIDAY THROUGH MONDAY...
.THURSDAY NIGHT-FRIDAY MORNING...IFR CONDITIONS LIKELY IN SNOW. UP TO 1 
INCH OF RUNWAY ACCUMULATION IS POSSIBLE FOR KNYC AND COASTAL 
TERMINALS...EXCEPT 1-2 INCHES AT KHPN/KSWF.
.FRIDAY AFTERNOON-FRIDAY EVENING...SCATTERED SNOW SHOWERS. FLASH 
FREEZE OF UNTREATED SURFACE POSSIBLE LATE AFTERNOON/EVENING. NW 
WINDS 20KT WITH 25-35 KT GUSTS.
.FRIDAY NIGHT...VFR WITH DIMINISHING WINDS LATE.
.SATURDAY...VFR. NW WINDS GUSTING 20-25 KT.
.SUNDAY-MONDAY...CONDITIONS DETERIORATE LATE SUNDAY TO MVFR OR 
LOWER...INITIALLY IN SNOW. LOW CONFIDENCE ON PRECIPITATION TYPE
AS PRECIPITATION COULD BECOME A WINTRY MIX SUNDAY NIGHT AND MONDAY
DUE TO UNCERTAINTY WITH TRACK OF LOW. LOW CONFIDENCE WIND FORECAST
AS WELL.


NY Metro Terminal Aviation Weather Summary: (Explanation of Color Coding)
NOTE: All Wind Directions are TRUE (add 13 degrees for magnetic directions). Tail and Crosswind Calculations do account for the magnetic deviation of runways.

Click on the Airport Below for Specific Information at that Terminal

TAF Overview JFK TAF LGA TAF EWR TAF TEB TAF HPN TAF ISP TAF

NOTE - A Recent Software Upgrade has caused TAF graphics not to Update.

Hope to have this fixed soon (1/18/15)

Jump to AirSpace Impacts Section Condensed "lite" version of SPA page
**************************************************************************************
KJFK Terminal Weather: (Wind Directions Are True, Except Where Noted, ADD 13 degrees for Magnetic)

5MIN KJFK 290420Z 36006KT 10SM CLR M04/M14 A3028 -310 
     46 -2700 010/06 RMK AO2 $
5MIN KJFK 290415Z 36006KT 10SM CLR M04/M14 A3028 -310 
     48 -2700 020/06 RMK AO2 $
********************************************
****        MAGNETIC DIRECTIONS         ****
********************************************
KJFK 01/29/2015 04:28:54 GMT 360 08 KT
KJFK 01/29/2015 04:26:54 GMT 360 08 KT
KJFK 01/29/2015 04:25:54 GMT 360 08 KT
KJFK 01/29/2015 04:23:54 GMT 360 07 KT
KJFK 01/29/2015 04:21:54 GMT 010 07 KT
KJFK 01/29/2015 04:19:54 GMT 010 07 KT
KJFK 01/29/2015 04:16:54 GMT 010 07 KT
KJFK 01/29/2015 04:15:54 GMT 010 08 KT
KJFK 01/29/2015 04:13:54 GMT 010 08 KT
KJFK 01/29/2015 04:11:54 GMT 010 08 KT
SAUS70 KJFK 290400 RRF
METAR KJFK 290351Z 01006KT 10SM CLR M04/M13 A3027 RMK AO2 SLP251
     T10391133 $
FTNA35 KJFK 290241 RRB
KJFK 290233Z 2903/3006 34008KT P6SM SKC
     FM291200 VRB04KT P6SM FEW150
     FM291900 16008KT P6SM SCT025 BKN100
     FM292300 16012G18KT P6SM SCT025 BKN080
     FM300200 19012G18KT P6SM BKN025 BKN050
     FM300500 19010KT 3SM -SN BKN015
KJFK Forecaster Comments Not Available at This Time
jfk

JFK Hourly Forecast Temperature (C)

JFK Hourly TMPS
**************************************************************************************
KLGA Terminal Weather: (Wind Directions Are True, Except Where Noted, ADD 13 degrees for Magnetic)

5MIN KLGA 290420Z 34009KT 10SM CLR M04/M14 A3027 -290 
     46 -2600 350/09 RMK AO2
5MIN KLGA 290415Z 34009KT 10SM CLR M04/M14 A3027 -290 
     46 -2600 350/09 RMK AO2
********************************************
****        MAGNETIC DIRECTIONS         ****
********************************************
KLGA 01/29/2015 04:29:54 GMT 360 09 KT
KLGA 01/29/2015 04:27:54 GMT 360 09 KT
KLGA 01/29/2015 04:25:54 GMT 360 11 KT
KLGA 01/29/2015 04:23:54 GMT 360 11 KT
KLGA 01/29/2015 04:21:54 GMT 010 11 KT
KLGA 01/29/2015 04:19:55 GMT 360 10 KT
KLGA 01/29/2015 04:17:54 GMT 360 09 KT
KLGA 01/29/2015 04:15:55 GMT 360 10 KT
KLGA 01/29/2015 04:13:54 GMT 360 11 KT
KLGA 01/29/2015 04:11:55 GMT 360 09 KT
SAUS70 KLGA 290400
METAR KLGA 290351Z 35008KT 10SM CLR M03/M14 A3027 RMK AO2 SLP248
     T10331144
FTUS80 KLGA 290236 AAB
KLGA 290233Z 2903/2924 35008KT P6SM SKC
     FM290600 01007KT P6SM SKC
     FM291200 VRB04KT P6SM FEW150
     FM291900 13008KT P6SM SCT025 BKN100
     FM292300 15010KT P6SM SCT025 BKN080
KLGA Forecaster Comments Not Available at This Time
lga


**************************************************************************************

KEWR Terminal Weather: (Wind Directions Are True, Except Where Noted, ADD 13 degrees for Magnetic)

5MIN KEWR 290420Z 34007KT 10SM CLR M04/M16 A3028 -310 
     40 -2700 350/07 RMK AO2
5MIN KEWR 290415Z 34009KT 10SM CLR M04/M16 A3028 -310 
     38 -2600 350/09 RMK AO2
********************************************
****        MAGNETIC DIRECTIONS         ****
********************************************
KEWR 01/29/2015 04:29:33 GMT 350 10 KT
KEWR 01/29/2015 04:27:33 GMT 350 10 KT
KEWR 01/29/2015 04:25:33 GMT 360 09 KT
KEWR 01/29/2015 04:23:33 GMT 360 09 KT
KEWR 01/29/2015 04:21:33 GMT 360 09 KT
KEWR 01/29/2015 04:19:33 GMT 360 11 KT
KEWR 01/29/2015 04:17:33 GMT 360 09 KT
KEWR 01/29/2015 04:15:33 GMT 360 10 KT
KEWR 01/29/2015 04:13:33 GMT 360 10 KT
KEWR 01/29/2015 04:11:33 GMT 360 10 KT
SAUS70 KEWR 290400
METAR KEWR 290351Z 34006KT 10SM CLR M04/M16 A3027 RMK AO2 SLP251
     T10391161
FTUS80 KEWR 290236 AAA
KEWR 290233Z 2903/3006 34008KT P6SM SKC
     FM290600 36006KT P6SM SKC
     FM291200 VRB04KT P6SM FEW150
     FM292000 13007KT P6SM SCT025 BKN100
     FM300200 19006KT P6SM BKN025 BKN050
     FM300500 19006KT 3SM -SN BKN015
KEWR Forecaster Comments Not Available at This Time
ewr
Afternoon EWR Haze Potential Forecast: KEWR Haze Forecast Not Available at This Time
IS NOT AVAILABLE AT THIS TIME


******************************************************************************

KTEB Terminal Weather:
SAUS80 KTEB 290400
METAR KTEB 290351Z 35004KT 10SM CLR M04/M18 A3027 RMK AO2 SLP249
     T10441178
FTUS80 KTEB 290236 AAB
KTEB 290233Z 2903/2924 34007KT P6SM SKC
     FM290600 VRB03KT P6SM SCT150
     FM292100 13008KT P6SM FEW025 BKN100
KTEB Forecaster Comments Not Available at This Time
teb

 


**************************************************************************************

KHPN Terminal Weather:
SAUS70 KHPN 290400 RRC
METAR KHPN 290356Z 33014KT 10SM CLR M07/M18 A3022 RMK AO2 SLP246
     T10721178
FTUS80 KHPN 290236 AAA
KHPN 290233Z 2903/2924 35007KT P6SM SKC
     FM290600 VRB03KT P6SM SCT150
     FM292100 13008KT P6SM SCT025 BKN100 AMD NOT SKED
KHPN Forecaster Comments Not Available at This Time
HPN


******************************************************************************

KISP Terminal Weather:
SAUS70 KISP 290400 RRC
METAR KISP 290356Z 34012KT 10SM CLR M05/M15 A3023 RMK AO2 SLP236
     T10501150
FTUS80 KISP 290236 AAA
KISP 290233Z 2903/2924 35008KT P6SM SKC
     FM290600 VRB04KT P6SM SKC
     FM292000 16008KT P6SM SCT025 BKN100
KISP Forecaster Comments Not Available at This Time
ISP

 


ZNY SWAP Season Information

(ZNY SWAP STATEMENT) (Click for PDF File) (ZNY BRIEFING) (Click for PDF File)

*******************************************************
***        NY AIR ROUTE TRAFFIC CONTROL CENTER      ***
***                DAILY SWAP STATEMENT             ***
*******************************************************
NY AIR ROUTE TRAFFIC CONTROL CENTER
DAILY SWAP STATEMENT
SUNDAY OCTOBER 26, 2014
ROUTINE SWAP STATEMENTS ARE ISSUED 
BETWEEN APRIL 1 AND SEPTEMBER 30.
SWAP STATEMENTS WILL BE ISSUED IF TS ARE 
EXPECTED TO IMPACT OPERATIONS.
$$



N90 AirSpace Impacts

N90 Compression Forecast

N90 Compression Forecast

N90 Icing Forecast

N90 Icing Forecast

N90 Thunderstorm Forecast (Issued if Expected)

N90 Day 2 SWAP Outlook

 

Surface Weather Map

Surface Weather map

National Collaborative Convective Forecast Product (CCFP) Forecasts (Mar-Oct)


Vertical Wind Profile
Untitled Document